Time;durP1;ratioP1;P1;durP2;ratioP2;P2;SDS_P1;SDS_P2;PMS_P1;PMS_P2;Temp;Humidity;BMP_temperature;BMP_pressure;BME280_temperature;BME280_humidity;BME280_pressure;Samples;Min_cycle;Max_cycle;Signal;HPM_P1;HPM_P2
2022/10/28 00:00:55;;;;;;;4.90;2.78;;;16.20;95.60;;;;;;4895022;29;20044;-76
2022/10/28 00:03:21;;;;;;;5.95;3.20;;;16.20;95.50;;;;;;4890800;29;20044;-76
2022/10/28 00:05:47;;;;;;;6.13;3.45;;;16.30;95.70;;;;;;4897474;29;20040;-76
2022/10/28 00:08:13;;;;;;;4.78;2.83;;;16.30;95.20;;;;;;4893741;29;20123;-76
2022/10/28 00:10:38;;;;;;;7.13;2.88;;;16.20;95.30;;;;;;4890795;29;20076;-76
2022/10/28 00:13:04;;;;;;;3.83;2.75;;;16.30;95.30;;;;;;4899584;29;20040;-76
2022/10/28 00:15:33;;;;;;;6.50;2.75;;;16.30;95.30;;;;;;4896554;29;20028;-76
2022/10/28 00:17:59;;;;;;;6.82;2.80;;;16.30;95.40;;;;;;4902860;29;20088;-76
2022/10/28 00:20:25;;;;;;;11.25;3.60;;;16.30;95.30;;;;;;4897399;29;20040;-75
2022/10/28 00:22:50;;;;;;;4.97;2.45;;;16.30;95.30;;;;;;4899943;29;20032;-76
2022/10/28 00:25:23;;;;;;;5.78;2.50;;;16.30;95.20;;;;;;4899307;29;20028;-76
2022/10/28 00:27:50;;;;;;;4.57;2.60;;;16.30;95.20;;;;;;4894928;29;20032;-76
2022/10/28 00:30:16;;;;;;;5.80;2.70;;;16.30;95.20;;;;;;4893342;29;20516;-76
2022/10/28 00:32:41;;;;;;;3.92;2.47;;;16.30;95.30;;;;;;4890619;29;20029;-76
2022/10/28 00:35:07;;;;;;;3.80;2.75;;;16.30;95.20;;;;;;4896559;29;20481;-76
2022/10/28 00:37:33;;;;;;;4.30;2.78;;;16.30;95.30;;;;;;4899878;29;20583;-76
2022/10/28 00:39:58;;;;;;;4.65;2.80;;;16.20;95.40;;;;;;4893779;29;20048;-76
2022/10/28 00:42:25;;;;;;;3.33;2.55;;;16.20;95.60;;;;;;4890645;29;20039;-76
2022/10/28 00:44:57;;;;;;;4.72;2.47;;;16.20;95.60;;;;;;4894865;29;20167;-76
2022/10/28 00:47:44;;;;;;;4.50;2.78;;;16.20;95.70;;;;;;4894281;29;20568;-76
2022/10/28 00:50:22;;;;;;;4.53;2.58;;;16.20;95.70;;;;;;4894088;29;20139;-76
2022/10/28 00:52:54;;;;;;;4.72;2.50;;;16.20;95.70;;;;;;4892603;29;20041;-76
2022/10/28 00:55:21;;;;;;;6.65;3.10;;;16.20;95.70;;;;;;4901299;29;20032;-76
2022/10/28 00:57:48;;;;;;;8.32;2.90;;;16.20;95.60;;;;;;4894267;29;20036;-76
2022/10/28 01:00:14;;;;;;;3.95;2.95;;;16.20;95.60;;;;;;4894753;29;20828;-76
2022/10/28 01:02:45;;;;;;;6.13;2.85;;;16.20;95.60;;;;;;4895965;29;20369;-76
2022/10/28 01:05:14;;;;;;;3.40;2.53;;;16.20;95.70;;;;;;4896707;29;20040;-77
2022/10/28 01:07:40;;;;;;;3.80;2.60;;;16.20;95.70;;;;;;4889177;29;20037;-76
2022/10/28 01:10:07;;;;;;;4.55;2.75;;;16.10;95.70;;;;;;4898263;29;20064;-76
2022/10/28 01:13:18;;;;;;;5.25;2.92;;;16.10;95.80;;;;;;4895997;29;20028;-76
2022/10/28 01:16:13;;;;;;;3.22;2.30;;;16.10;95.80;;;;;;4843992;29;20045;-76
2022/10/28 01:19:00;;;;;;;4.53;2.80;;;16.10;95.80;;;;;;4898669;29;20095;-76
2022/10/28 01:21:41;;;;;;;6.55;3.08;;;16.00;95.70;;;;;;4897042;29;20040;-76
2022/10/28 01:24:25;;;;;;;6.60;2.97;;;16.00;95.70;;;;;;4892809;29;20039;-76
2022/10/28 01:27:10;;;;;;;4.75;2.80;;;15.90;95.70;;;;;;4899326;29;20036;-76
2022/10/28 01:29:54;;;;;;;5.15;3.22;;;15.90;95.70;;;;;;4900082;29;20051;-76
2022/10/28 01:32:35;;;;;;;3.17;2.83;;;15.80;95.70;;;;;;4894536;29;20028;-76
2022/10/28 01:35:32;;;;;;;6.93;3.25;;;15.70;95.80;;;;;;4894633;29;20047;-76
2022/10/28 01:38:14;;;;;;;6.03;3.05;;;15.60;96.00;;;;;;4894786;29;20037;-76
2022/10/28 01:41:01;;;;;;;7.82;3.05;;;15.50;96.20;;;;;;4893407;29;20033;-76
2022/10/28 01:43:51;;;;;;;5.63;3.08;;;15.50;96.30;;;;;;4911960;29;20045;-76
2022/10/28 01:46:35;;;;;;;4.80;2.92;;;15.40;96.40;;;;;;4894791;29;20151;-76
2022/10/28 01:49:15;;;;;;;6.28;3.35;;;15.30;96.50;;;;;;4896042;29;20039;-76
2022/10/28 01:51:46;;;;;;;6.82;3.30;;;15.30;96.70;;;;;;4899607;29;20032;-76
2022/10/28 01:54:16;;;;;;;4.55;3.05;;;15.30;96.70;;;;;;4898898;29;20096;-76
2022/10/28 01:56:47;;;;;;;3.72;2.97;;;15.20;96.80;;;;;;4895939;29;20067;-76
2022/10/28 01:59:18;;;;;;;4.85;3.20;;;15.20;96.90;;;;;;4901282;29;20047;-76
2022/10/28 02:01:43;;;;;;;7.78;3.47;;;15.20;96.90;;;;;;4894716;29;20343;-76
2022/10/28 02:04:09;;;;;;;4.43;3.25;;;15.20;97.10;;;;;;4896793;29;20051;-76
2022/10/28 02:06:37;;;;;;;4.18;2.72;;;15.10;97.10;;;;;;4903420;29;20032;-76
2022/10/28 02:09:12;;;;;;;4.22;3.40;;;15.10;97.20;;;;;;4898438;29;20044;-76
2022/10/28 02:12:08;;;;;;;6.18;3.22;;;15.10;97.30;;;;;;4898168;29;20069;-76
2022/10/28 02:14:52;;;;;;;7.25;3.40;;;15.10;97.30;;;;;;4886518;29;20119;-76
2022/10/28 02:17:49;;;;;;;5.55;3.22;;;15.10;97.40;;;;;;4909216;29;20048;-76
2022/10/28 02:20:33;;;;;;;6.50;3.30;;;15.00;97.50;;;;;;4895998;29;20047;-76
2022/10/28 02:23:05;;;;;;;6.18;3.47;;;15.00;97.70;;;;;;4896801;29;20040;-76
2022/10/28 02:25:38;;;;;;;4.50;3.08;;;15.00;97.70;;;;;;4906277;29;20051;-76
2022/10/28 02:28:13;;;;;;;5.78;3.92;;;15.00;97.70;;;;;;4900447;29;20063;-76
2022/10/28 02:30:38;;;;;;;6.40;3.60;;;15.00;97.60;;;;;;4893689;29;20448;-76
2022/10/28 02:33:16;;;;;;;8.43;3.60;;;15.00;97.50;;;;;;4897260;29;20035;-76
2022/10/28 02:35:56;;;;;;;10.25;3.97;;;15.00;97.70;;;;;;4895048;29;20250;-76
2022/10/28 02:38:37;;;;;;;6.72;3.88;;;15.00;97.60;;;;;;4892127;29;20633;-76
2022/10/28 02:41:13;;;;;;;6.72;3.55;;;15.00;97.60;;;;;;4895309;29;20037;-76
2022/10/28 02:43:42;;;;;;;10.98;4.20;;;14.90;97.80;;;;;;4894637;29;20097;-76
2022/10/28 02:46:10;;;;;;;7.10;4.13;;;14.90;97.80;;;;;;4901025;29;20490;-76
2022/10/28 02:48:47;;;;;;;7.07;3.47;;;14.90;98.00;;;;;;4899372;29;20676;-76
2022/10/28 02:51:18;;;;;;;4.72;3.45;;;14.80;98.10;;;;;;4896702;29;20100;-76
2022/10/28 02:53:58;;;;;;;6.68;3.58;;;14.90;98.20;;;;;;4897436;29;20032;-76
2022/10/28 02:56:25;;;;;;;6.45;3.80;;;14.90;98.30;;;;;;4894070;29;20044;-76
2022/10/28 02:58:50;;;;;;;7.72;3.53;;;14.90;98.20;;;;;;4901571;29;20099;-76
2022/10/28 03:01:16;;;;;;;7.43;4.07;;;14.90;98.20;;;;;;4901835;29;20119;-76
2022/10/28 03:03:45;;;;;;;5.82;3.08;;;14.80;98.40;;;;;;4898121;29;20043;-76
2022/10/28 03:06:11;;;;;;;6.45;3.45;;;14.90;98.40;;;;;;4892939;29;20027;-76
2022/10/28 03:08:37;;;;;;;5.18;3.55;;;14.90;98.30;;;;;;4895428;29;20592;-76
2022/10/28 03:11:02;;;;;;;5.00;3.60;;;14.90;98.20;;;;;;4897636;29;20075;-76
2022/10/28 03:13:28;;;;;;;4.95;3.42;;;14.80;98.10;;;;;;4901529;29;20039;-76
2022/10/28 03:15:54;;;;;;;8.77;3.85;;;14.80;98.20;;;;;;4897634;29;20075;-77
2022/10/28 03:18:23;;;;;;;6.40;3.33;;;14.80;98.20;;;;;;4897810;29;20064;-76
2022/10/28 03:20:48;;;;;;;6.18;3.67;;;14.80;98.20;;;;;;4897992;29;20039;-76
2022/10/28 03:23:14;;;;;;;5.95;3.55;;;14.80;98.20;;;;;;4898024;29;20032;-76
2022/10/28 03:25:40;;;;;;;8.35;3.70;;;14.80;98.40;;;;;;4902543;29;20075;-76
2022/10/28 03:28:05;;;;;;;7.28;3.90;;;14.80;98.50;;;;;;4899731;29;20123;-77
2022/10/28 03:30:31;;;;;;;8.27;4.00;;;14.80;98.50;;;;;;4901082;29;20036;-76
2022/10/28 03:32:57;;;;;;;5.55;3.90;;;14.80;98.80;;;;;;4900062;29;20036;-76
2022/10/28 03:35:23;;;;;;;6.05;3.60;;;14.80;98.70;;;;;;4900335;29;20464;-76
2022/10/28 03:37:49;;;;;;;6.18;3.42;;;14.80;98.60;;;;;;4903376;29;20071;-76
2022/10/28 03:40:15;;;;;;;5.72;3.53;;;14.80;98.70;;;;;;4896747;29;20067;-76
2022/10/28 03:42:41;;;;;;;6.40;3.58;;;14.80;98.60;;;;;;4900693;29;20066;-76
2022/10/28 03:45:07;;;;;;;7.30;3.85;;;14.80;98.60;;;;;;4896079;29;20079;-76
2022/10/28 03:47:34;;;;;;;7.78;3.83;;;14.90;98.60;;;;;;4898371;29;20047;-76
2022/10/28 03:50:00;;;;;;;6.78;3.78;;;14.90;98.40;;;;;;4904270;29;20118;-76
2022/10/28 03:52:26;;;;;;;6.28;3.63;;;14.90;98.30;;;;;;4901340;29;20055;-76
2022/10/28 03:54:51;;;;;;;7.55;3.80;;;14.90;98.40;;;;;;4896272;29;20508;-76
2022/10/28 03:57:17;;;;;;;7.65;4.40;;;14.90;98.20;;;;;;4896544;29;20028;-76
2022/10/28 03:59:43;;;;;;;8.77;3.78;;;14.80;98.50;;;;;;4896503;29;20532;-76
2022/10/28 04:02:08;;;;;;;5.97;3.88;;;14.80;98.30;;;;;;4896572;29;20184;-75
2022/10/28 04:04:34;;;;;;;6.00;3.38;;;14.80;98.40;;;;;;4902369;29;20511;-76
2022/10/28 04:07:00;;;;;;;7.30;3.75;;;14.80;98.50;;;;;;4894505;29;20047;-76
2022/10/28 04:09:26;;;;;;;7.15;3.58;;;14.80;98.50;;;;;;4900422;29;20031;-76
2022/10/28 04:11:51;;;;;;;8.15;3.80;;;14.80;98.50;;;;;;4898146;29;20028;-76
2022/10/28 04:14:17;;;;;;;9.80;3.80;;;14.80;98.50;;;;;;4889887;29;20132;-76
2022/10/28 04:16:43;;;;;;;8.05;3.90;;;14.80;98.80;;;;;;4895233;29;20036;-76
2022/10/28 04:19:08;;;;;;;7.85;4.07;;;14.80;98.80;;;;;;4903797;29;20126;-76
2022/10/28 04:21:34;;;;;;;9.13;3.97;;;14.80;98.60;;;;;;4892647;29;20088;-76
2022/10/28 04:24:00;;;;;;;6.40;3.90;;;14.80;98.40;;;;;;4895573;29;20032;-76
2022/10/28 04:26:26;;;;;;;5.10;3.55;;;14.90;98.30;;;;;;4896256;29;20048;-76
2022/10/28 04:28:51;;;;;;;3.95;3.10;;;14.80;98.40;;;;;;4893482;29;20085;-76
2022/10/28 04:31:17;;;;;;;5.20;3.13;;;14.80;98.50;;;;;;4893157;29;20024;-76
2022/10/28 04:33:43;;;;;;;7.80;3.78;;;14.80;98.30;;;;;;4895228;29;20408;-76
2022/10/28 04:36:09;;;;;;;7.78;4.03;;;14.80;98.30;;;;;;4890155;29;20039;-76
2022/10/28 04:38:34;;;;;;;7.85;3.75;;;14.90;98.40;;;;;;4892198;29;20618;-76
2022/10/28 04:41:00;;;;;;;10.93;4.05;;;14.90;98.60;;;;;;4893881;29;20047;-76
2022/10/28 04:43:26;;;;;;;6.85;3.55;;;14.90;98.30;;;;;;4891801;29;20032;-76
2022/10/28 04:45:51;;;;;;;6.20;3.05;;;14.80;98.20;;;;;;4899887;29;20044;-76
2022/10/28 04:48:17;;;;;;;5.90;3.75;;;14.80;98.20;;;;;;4891955;29;20028;-76
2022/10/28 04:50:43;;;;;;;7.82;3.60;;;14.80;98.40;;;;;;4899248;29;20032;-76
2022/10/28 04:53:10;;;;;;;5.65;3.63;;;14.80;98.20;;;;;;4897340;29;20409;-76
2022/10/28 04:55:36;;;;;;;8.05;3.80;;;14.80;98.20;;;;;;4899927;29;20032;-76
2022/10/28 04:58:01;;;;;;;3.28;2.83;;;14.80;98.20;;;;;;4901327;29;20111;-76
2022/10/28 05:00:28;;;;;;;5.28;3.25;;;14.80;98.10;;;;;;4903973;29;20118;-76
2022/10/28 05:02:54;;;;;;;5.75;3.35;;;14.80;98.10;;;;;;4897173;29;20037;-76
2022/10/28 05:05:20;;;;;;;5.35;4.13;;;14.80;98.10;;;;;;4892731;29;20761;-76
2022/10/28 05:07:47;;;;;;;5.50;3.40;;;14.90;98.00;;;;;;4900198;29;20039;-76
2022/10/28 05:10:16;;;;;;;5.53;3.42;;;14.80;97.90;;;;;;4894317;29;20116;-76
2022/10/28 05:12:44;;;;;;;6.78;3.42;;;14.80;98.00;;;;;;4894085;29;20081;-76
2022/10/28 05:15:11;;;;;;;7.97;3.83;;;14.80;98.00;;;;;;4894221;29;20055;-76
2022/10/28 05:17:42;;;;;;;6.95;3.70;;;14.80;98.20;;;;;;4896910;29;20185;-76
2022/10/28 05:20:08;;;;;;;7.03;3.50;;;14.80;98.20;;;;;;4897488;29;20124;-76
2022/10/28 05:22:34;;;;;;;5.60;3.28;;;14.90;98.20;;;;;;4902600;29;20036;-76
2022/10/28 05:25:00;;;;;;;6.63;4.03;;;14.90;98.10;;;;;;4888185;29;20041;-76
2022/10/28 05:27:25;;;;;;;5.10;3.15;;;14.90;98.10;;;;;;4897792;29;20164;-76
2022/10/28 05:29:51;;;;;;;6.88;3.65;;;15.00;98.00;;;;;;4897424;29;20115;-76
2022/10/28 05:32:17;;;;;;;8.45;3.25;;;15.00;98.00;;;;;;4896937;29;20028;-76
2022/10/28 05:34:42;;;;;;;5.43;3.20;;;15.00;97.80;;;;;;4895601;29;20426;-76
2022/10/28 05:37:08;;;;;;;5.35;3.53;;;14.90;97.80;;;;;;4899123;29;20551;-76
2022/10/28 05:39:34;;;;;;;4.85;3.60;;;14.90;97.80;;;;;;4897114;29;20876;-75
2022/10/28 05:41:59;;;;;;;7.47;3.17;;;14.90;97.70;;;;;;4897147;29;20052;-76
2022/10/28 05:44:25;;;;;;;5.20;3.00;;;14.90;97.70;;;;;;4901641;29;20042;-76
2022/10/28 05:46:52;;;;;;;11.75;3.72;;;14.90;97.90;;;;;;4898873;29;20508;-78
2022/10/28 05:49:19;;;;;;;5.63;3.28;;;14.90;98.10;;;;;;4893422;29;20447;-77
2022/10/28 05:51:47;;;;;;;10.20;3.35;;;14.90;98.00;;;;;;4896059;29;20486;-75
2022/10/28 05:54:12;;;;;;;8.80;3.80;;;14.90;98.00;;;;;;4882354;29;20835;-76
2022/10/28 05:56:38;;;;;;;7.00;3.67;;;14.90;97.80;;;;;;4900482;29;20123;-67
2022/10/28 05:59:04;;;;;;;7.70;3.67;;;14.90;97.60;;;;;;4895109;29;20055;-75
2022/10/28 06:01:30;;;;;;;5.93;3.35;;;14.90;97.60;;;;;;4895071;29;20116;-76
2022/10/28 06:03:55;;;;;;;6.28;3.50;;;14.90;97.80;;;;;;4894691;29;20056;-75
2022/10/28 06:06:21;;;;;;;7.95;3.47;;;14.90;97.70;;;;;;4893868;29;20028;-75
2022/10/28 06:08:47;;;;;;;6.45;3.20;;;14.90;97.60;;;;;;4894435;29;20060;-74
2022/10/28 06:11:13;;;;;;;7.53;4.15;;;14.90;97.50;;;;;;4893680;29;20521;-72
2022/10/28 06:13:38;;;;;;;5.75;3.47;;;14.80;97.50;;;;;;4881173;29;20024;-73
2022/10/28 06:16:04;;;;;;;6.72;3.42;;;14.80;97.50;;;;;;4893155;29;20044;-73
2022/10/28 06:18:30;;;;;;;7.15;3.75;;;14.80;97.60;;;;;;4896485;29;20079;-73
2022/10/28 06:20:57;;;;;;;5.53;3.42;;;14.70;97.60;;;;;;4894638;29;20677;-73
2022/10/28 06:23:25;;;;;;;8.35;3.70;;;14.70;97.60;;;;;;4890341;29;20040;-73
2022/10/28 06:25:51;;;;;;;8.20;4.00;;;14.70;97.80;;;;;;4894506;29;20489;-73
2022/10/28 06:28:16;;;;;;;6.40;3.17;;;14.60;97.90;;;;;;4895856;29;20128;-73
2022/10/28 06:30:42;;;;;;;6.93;4.28;;;14.60;98.10;;;;;;4893597;29;20036;-73
2022/10/28 06:33:08;;;;;;;8.90;3.58;;;14.60;98.20;;;;;;4896010;29;20088;-72
2022/10/28 06:35:34;;;;;;;5.38;3.90;;;14.70;98.30;;;;;;4898067;29;20101;-73
2022/10/28 06:37:59;;;;;;;6.07;3.97;;;14.70;98.30;;;;;;4901894;29;20147;-69
2022/10/28 06:40:26;;;;;;;6.05;3.58;;;14.70;98.30;;;;;;4898907;29;20044;-76
2022/10/28 06:42:57;;;;;;;6.95;4.28;;;14.70;98.40;;;;;;4901235;29;20726;-77
2022/10/28 06:45:23;;;;;;;6.28;3.60;;;14.80;98.60;;;;;;4899992;29;20479;-76
2022/10/28 06:47:49;;;;;;;6.93;3.67;;;14.70;98.50;;;;;;4902676;29;20067;-75
2022/10/28 06:50:14;;;;;;;7.18;4.28;;;14.80;98.50;;;;;;4900087;29;20028;-75
2022/10/28 06:52:40;;;;;;;13.93;4.38;;;14.90;98.60;;;;;;4903047;29;20133;-76
2022/10/28 06:55:06;;;;;;;6.88;4.05;;;14.90;98.60;;;;;;4897151;29;20062;-76
2022/10/28 06:57:32;;;;;;;7.20;4.10;;;15.00;98.60;;;;;;4906556;29;20047;-76
2022/10/28 06:59:57;;;;;;;7.00;4.00;;;15.10;98.50;;;;;;4898852;29;20028;-76
2022/10/28 07:02:23;;;;;;;8.98;4.43;;;15.10;98.40;;;;;;4903743;29;20039;-76
2022/10/28 07:04:49;;;;;;;9.38;4.13;;;15.20;98.30;;;;;;4895131;29;20182;-76
2022/10/28 07:07:14;;;;;;;9.07;4.15;;;15.30;98.10;;;;;;4896250;29;20076;-76
2022/10/28 07:09:42;;;;;;;9.55;4.63;;;15.40;97.80;;;;;;4904070;29;20032;-76
2022/10/28 07:12:11;;;;;;;9.00;4.57;;;15.40;97.60;;;;;;4897149;29;20036;-77
2022/10/28 07:14:37;;;;;;;6.13;3.78;;;15.50;97.40;;;;;;4895359;29;20067;-76
2022/10/28 07:17:02;;;;;;;7.97;4.05;;;15.60;97.30;;;;;;4898879;29;20036;-77
2022/10/28 07:19:28;;;;;;;7.82;4.28;;;15.70;97.10;;;;;;4898245;29;20037;-75
2022/10/28 07:21:54;;;;;;;15.05;4.30;;;15.80;97.00;;;;;;4896301;29;20128;-75
2022/10/28 07:24:20;;;;;;;18.38;4.53;;;15.90;96.70;;;;;;4899341;29;20140;-75
2022/10/28 07:26:49;;;;;;;9.55;4.50;;;16.00;96.40;;;;;;4901218;29;20535;-76
2022/10/28 07:29:15;;;;;;;5.22;3.17;;;16.10;96.20;;;;;;4899169;29;20032;-75
2022/10/28 07:31:41;;;;;;;8.82;4.00;;;16.10;96.20;;;;;;4899222;29;20032;-75
2022/10/28 07:34:07;;;;;;;9.23;3.55;;;16.10;96.30;;;;;;4905006;29;20051;-75
2022/10/28 07:36:32;;;;;;;9.32;3.63;;;16.10;96.20;;;;;;4905893;29;20855;-76
2022/10/28 07:38:58;;;;;;;12.50;4.10;;;16.20;96.20;;;;;;4891754;29;20127;-75
2022/10/28 07:41:24;;;;;;;5.65;3.63;;;16.20;96.20;;;;;;4900061;29;20060;-76
2022/10/28 07:43:50;;;;;;;8.63;3.70;;;16.30;96.20;;;;;;4897789;29;20043;-76
2022/10/28 07:46:17;;;;;;;5.88;3.45;;;16.30;95.90;;;;;;4895732;29;20047;-76
2022/10/28 07:48:43;;;;;;;8.63;4.25;;;16.30;95.80;;;;;;4902482;29;20059;-76
2022/10/28 07:51:11;;;;;;;6.25;3.30;;;16.40;95.80;;;;;;4897069;29;20692;-79
2022/10/28 07:53:37;;;;;;;7.93;3.60;;;16.40;95.70;;;;;;4902617;29;20075;-76
2022/10/28 07:56:08;;;;;;;6.60;3.65;;;16.50;95.50;;;;;;4899909;29;20099;-78
2022/10/28 07:58:34;;;;;;;6.85;3.55;;;16.40;95.60;;;;;;4897841;29;20032;-76
2022/10/28 08:01:06;;;;;;;7.13;3.47;;;16.50;95.80;;;;;;4897134;29;20048;-76
2022/10/28 08:03:32;;;;;;;8.98;4.10;;;16.60;95.80;;;;;;4899583;29;20040;-76
2022/10/28 08:06:03;;;;;;;8.43;4.03;;;16.70;95.60;;;;;;4897766;29;20046;-76
2022/10/28 08:08:29;;;;;;;5.75;3.00;;;16.70;95.50;;;;;;4901097;29;20162;-78
2022/10/28 08:10:55;;;;;;;8.98;3.38;;;16.80;95.20;;;;;;4899639;29;20044;-75
2022/10/28 08:13:20;;;;;;;6.55;3.25;;;17.00;95.40;;;;;;4896134;29;20282;-73
2022/10/28 08:15:55;;;;;;;12.40;3.80;;;17.20;95.10;;;;;;4894260;29;20135;-73
2022/10/28 08:18:21;;;;;;;8.38;3.63;;;17.40;94.20;;;;;;4896035;29;20032;-76
2022/10/28 08:20:48;;;;;;;8.50;3.70;;;17.60;93.80;;;;;;4899224;29;20532;-77
2022/10/28 08:23:14;;;;;;;12.27;4.20;;;17.70;93.80;;;;;;4918947;28;20578;-77
2022/10/28 08:25:47;;;;;;;6.90;3.50;;;17.80;93.50;;;;;;4935018;28;20063;-77
2022/10/28 08:28:16;;;;;;;10.85;3.78;;;17.90;93.10;;;;;;4931356;29;20046;-76
2022/10/28 08:30:42;;;;;;;8.35;3.67;;;17.90;92.90;;;;;;4932866;29;20127;-75
2022/10/28 08:33:08;;;;;;;10.63;3.70;;;18.00;93.00;;;;;;4933677;29;20567;-76
2022/10/28 08:35:36;;;;;;;8.55;3.65;;;18.10;92.70;;;;;;4935367;28;20046;-76
2022/10/28 08:38:03;;;;;;;8.70;3.22;;;18.30;92.20;;;;;;4931103;29;20106;-76
2022/10/28 08:40:35;;;;;;;9.57;3.55;;;18.40;92.40;;;;;;4932472;28;20032;-74
2022/10/28 08:43:14;;;;;;;7.63;3.38;;;18.60;91.80;;;;;;4928905;28;20039;-76
2022/10/28 08:45:53;;;;;;;8.73;3.25;;;18.60;91.80;;;;;;4938446;28;20043;-76
2022/10/28 08:48:18;;;;;;;9.18;3.50;;;18.80;91.70;;;;;;4930523;29;20032;-75
2022/10/28 08:50:51;;;;;;;8.13;3.97;;;19.10;91.50;;;;;;4934193;29;20050;-76
2022/10/28 08:53:45;;;;;;;8.65;3.55;;;19.20;90.70;;;;;;4937999;28;20039;-76
2022/10/28 08:56:36;;;;;;;6.18;3.08;;;19.30;90.50;;;;;;4932569;29;20035;-76
2022/10/28 08:59:06;;;;;;;7.68;3.10;;;19.30;90.50;;;;;;4930050;28;20538;-76
2022/10/28 09:01:41;;;;;;;7.50;3.15;;;19.60;90.30;;;;;;4935375;29;20042;-76
2022/10/28 09:04:31;;;;;;;6.28;2.83;;;19.80;89.80;;;;;;4929736;28;20035;-77
2022/10/28 09:06:57;;;;;;;9.18;3.17;;;20.20;89.10;;;;;;4932234;29;20585;-77
2022/10/28 09:09:23;;;;;;;11.55;3.15;;;21.00;86.10;;;;;;4936454;29;20027;-77
2022/10/28 09:12:40;;;;;;;8.23;3.15;;;21.80;82.30;;;;;;4930673;29;20031;-76
2022/10/28 09:15:17;;;;;;;11.93;3.10;;;22.70;79.70;;;;;;4902786;28;20120;-78
2022/10/28 09:17:55;;;;;;;12.73;2.88;;;23.60;74.80;;;;;;4934003;28;20031;-77
2022/10/28 09:20:53;;;;;;;3.78;2.28;;;24.20;72.30;;;;;;4930528;28;20090;-77
2022/10/28 09:23:48;;;;;;;7.57;2.90;;;24.70;70.40;;;;;;4934254;29;20124;-77
2022/10/28 09:26:44;;;;;;;7.65;2.88;;;24.80;69.60;;;;;;4932683;29;20079;-77
2022/10/28 09:29:26;;;;;;;10.90;3.13;;;24.70;67.40;;;;;;4935265;29;20062;-77
2022/10/28 09:32:00;;;;;;;7.70;2.63;;;24.40;68.40;;;;;;4930043;29;20039;-77
2022/10/28 09:34:43;;;;;;;6.38;2.72;;;23.40;70.70;;;;;;4932199;28;20032;-77
2022/10/28 09:37:36;;;;;;;7.82;3.17;;;22.80;73.80;;;;;;4930454;29;20031;-77
2022/10/28 09:40:17;;;;;;;9.27;2.75;;;23.10;74.60;;;;;;4936276;29;20895;-76
2022/10/28 09:43:05;;;;;;;5.47;2.63;;;23.70;71.80;;;;;;4932076;29;20051;-77
2022/10/28 09:45:34;;;;;;;5.88;2.42;;;24.10;71.80;;;;;;4938430;28;20047;-77
2022/10/28 09:48:25;;;;;;;8.80;2.55;;;24.20;69.40;;;;;;4928420;29;20046;-77
2022/10/28 09:50:54;;;;;;;10.43;3.35;;;24.20;70.20;;;;;;4931649;29;20031;-77
2022/10/28 09:53:49;;;;;;;11.10;2.88;;;24.40;69.40;;;;;;4937589;28;20505;-75
2022/10/28 09:56:15;;;;;;;6.72;2.72;;;24.30;69.60;;;;;;4933756;29;20130;-71
2022/10/28 09:58:48;;;;;;;7.72;2.47;;;24.50;69.80;;;;;;4935265;29;20046;-74
2022/10/28 10:01:16;;;;;;;6.85;2.50;;;24.80;67.80;;;;;;4931476;28;20053;-74
2022/10/28 10:03:44;;;;;;;8.05;3.92;;;25.10;66.50;;;;;;4941471;28;20031;-73
2022/10/28 10:06:26;;;;;;;8.65;2.00;;;25.10;65.50;;;;;;4931432;28;20044;-74
2022/10/28 10:08:55;;;;;;;8.80;2.55;;;25.30;66.40;;;;;;4930455;29;20035;-74
2022/10/28 10:11:43;;;;;;;5.63;2.85;;;25.00;66.10;;;;;;4936555;29;20027;-74
2022/10/28 10:14:13;;;;;;;8.60;2.53;;;24.90;66.10;;;;;;4932756;28;20031;-74
2022/10/28 10:16:47;;;;;;;7.57;2.67;;;24.80;66.70;;;;;;4936600;29;20039;-74
2022/10/28 10:19:13;;;;;;;10.90;2.83;;;24.60;67.90;;;;;;4938927;29;20035;-74
2022/10/28 10:21:42;;;;;;;6.10;2.65;;;24.50;67.60;;;;;;4940293;29;20090;-74
2022/10/28 10:24:34;;;;;;;7.20;3.03;;;24.50;67.20;;;;;;4936891;28;20049;-74
2022/10/28 10:27:11;;;;;;;9.93;3.55;;;24.80;65.60;;;;;;4938364;28;20043;-75
2022/10/28 10:29:52;;;;;;;6.97;3.90;;;25.30;65.00;;;;;;4938765;29;20035;-74
2022/10/28 10:32:25;;;;;;;11.63;3.92;;;26.40;61.30;;;;;;4936221;29;20035;-74
2022/10/28 10:35:02;;;;;;;11.32;4.30;;;27.60;59.10;;;;;;4939175;29;20042;-74
2022/10/28 10:37:31;;;;;;;15.00;6.65;;;27.90;56.00;;;;;;4937231;29;20110;-74
2022/10/28 10:40:20;;;;;;;10.90;3.50;;;28.40;55.60;;;;;;4937545;28;20118;-73
2022/10/28 10:42:46;;;;;;;6.78;3.65;;;29.10;53.70;;;;;;4910776;28;20157;-76
2022/10/28 10:45:15;;;;;;;7.18;3.30;;;29.20;53.40;;;;;;4935259;29;20039;-76
2022/10/28 10:47:41;;;;;;;10.90;4.43;;;29.60;52.80;;;;;;4937499;29;20055;-76
2022/10/28 10:50:21;;;;;;;7.20;3.72;;;29.90;51.60;;;;;;4931694;29;20028;-76
2022/10/28 10:52:58;;;;;;;9.55;2.70;;;29.70;51.20;;;;;;4944204;28;20110;-75
2022/10/28 10:55:37;;;;;;;7.00;2.92;;;29.30;52.10;;;;;;4932571;28;20086;-75
2022/10/28 10:58:05;;;;;;;4.20;2.50;;;28.90;52.50;;;;;;4929749;29;20048;-76
2022/10/28 11:00:37;;;;;;;7.47;2.50;;;27.90;55.70;;;;;;4930648;29;20111;-74
2022/10/28 11:03:14;;;;;;;8.88;3.85;;;26.50;58.50;;;;;;4934322;29;20150;-67
2022/10/28 11:05:48;;;;;;;9.23;3.47;;;25.50;61.80;;;;;;4935367;28;20052;-69
2022/10/28 11:08:39;;;;;;;7.22;2.50;;;24.90;64.70;;;;;;4936792;28;20486;-71
2022/10/28 11:11:20;;;;;;;5.10;2.05;;;24.50;65.50;;;;;;4931965;28;20031;-73
2022/10/28 11:13:48;;;;;;;9.13;2.35;;;23.90;67.90;;;;;;4947630;28;20032;-74
2022/10/28 11:16:22;;;;;;;4.93;2.33;;;23.70;68.00;;;;;;4935298;29;20039;-75
2022/10/28 11:18:50;;;;;;;15.10;2.85;;;23.60;69.30;;;;;;4938720;29;20173;-73
2022/10/28 11:21:27;;;;;;;12.50;2.58;;;23.70;68.70;;;;;;4929365;29;20034;-74
2022/10/28 11:24:33;;;;;;;6.25;2.40;;;23.50;68.80;;;;;;4935570;28;20047;-72
2022/10/28 11:27:22;;;;;;;4.63;1.90;;;23.50;69.10;;;;;;4926035;29;20043;-72
2022/10/28 11:29:49;;;;;;;6.38;2.50;;;23.50;68.80;;;;;;4940894;29;20063;-73
2022/10/28 11:32:14;;;;;;;6.53;2.75;;;23.50;69.40;;;;;;4933084;29;20458;-72
2022/10/28 11:35:06;;;;;;;9.27;2.45;;;23.40;69.50;;;;;;4932042;28;20035;-72
2022/10/28 11:37:39;;;;;;;9.25;2.67;;;23.30;69.90;;;;;;4934067;29;20035;-72
2022/10/28 11:40:27;;;;;;;6.90;2.03;;;23.20;70.00;;;;;;4931609;29;20212;-72
2022/10/28 11:43:12;;;;;;;4.57;2.20;;;23.20;70.10;;;;;;4932346;29;20067;-72
2022/10/28 11:45:48;;;;;;;7.72;2.30;;;23.20;70.90;;;;;;4931254;29;20109;-73
2022/10/28 11:48:14;;;;;;;10.70;2.67;;;23.30;70.90;;;;;;4932810;29;20050;-72
2022/10/28 11:50:57;;;;;;;8.90;2.65;;;23.30;71.50;;;;;;4935069;29;20036;-72
2022/10/28 11:53:26;;;;;;;8.07;2.85;;;23.30;70.90;;;;;;4933855;28;20535;-72
2022/10/28 11:56:22;;;;;;;6.00;2.03;;;23.20;70.80;;;;;;4937248;29;20255;-72
2022/10/28 11:59:09;;;;;;;10.68;2.38;;;23.20;70.70;;;;;;4932624;29;20395;-71
2022/10/28 12:02:15;;;;;;;7.80;2.33;;;23.20;71.40;;;;;;4934449;29;20023;-72
2022/10/28 12:05:03;;;;;;;8.52;2.80;;;23.20;72.10;;;;;;4932475;29;20103;-72
2022/10/28 12:07:39;;;;;;;7.60;2.63;;;23.10;71.90;;;;;;4933196;29;20038;-72
2022/10/28 12:10:24;;;;;;;;;;;23.10;72.40;;;;;;4934425;29;20039;-72
2022/10/28 12:12:59;;;;;;;10.63;2.47;;;23.10;72.30;;;;;;4934230;29;20048;-72
2022/10/28 12:15:34;;;;;;;4.22;2.10;;;23.20;72.70;;;;;;4936404;28;20035;-72
2022/10/28 12:18:34;;;;;;;6.55;2.17;;;23.40;72.00;;;;;;4935979;29;20553;-72
2022/10/28 12:21:15;;;;;;;7.75;2.58;;;23.50;71.30;;;;;;4936625;29;20691;-72
2022/10/28 12:23:42;;;;;;;7.45;2.15;;;23.60;70.70;;;;;;4934746;29;20092;-72
2022/10/28 12:26:14;;;;;;;7.18;2.55;;;23.60;70.90;;;;;;4932635;29;20047;-72
2022/10/28 12:28:44;;;;;;;7.07;2.45;;;23.50;70.70;;;;;;4942282;29;20316;-72
2022/10/28 12:31:41;;;;;;;4.85;2.10;;;23.50;70.50;;;;;;4936024;29;20065;-72
2022/10/28 12:34:16;;;;;;;10.60;2.60;;;23.40;70.60;;;;;;4930253;28;20043;-71
2022/10/28 12:37:09;;;;;;;11.20;2.60;;;23.40;72.20;;;;;;4932371;29;20042;-72
2022/10/28 12:39:49;;;;;;;6.18;2.10;;;23.50;71.00;;;;;;4938283;28;20039;-71
2022/10/28 12:42:41;;;;;;;6.60;2.60;;;23.50;70.80;;;;;;4932938;28;20035;-72
2022/10/28 12:45:12;;;;;;;6.68;2.53;;;23.50;70.60;;;;;;4925891;28;20122;-72
2022/10/28 12:47:59;;;;;;;8.23;2.45;;;23.50;70.60;;;;;;4930425;29;20050;-72
2022/10/28 12:50:51;;;;;;;7.40;1.95;;;23.60;70.50;;;;;;4929774;29;20031;-75
2022/10/28 12:53:29;;;;;;;5.28;1.98;;;23.60;70.20;;;;;;4929809;28;20075;-72
2022/10/28 12:56:00;;;;;;;4.55;2.00;;;23.60;70.50;;;;;;4930016;29;20790;-72
2022/10/28 12:58:48;;;;;;;10.85;2.38;;;23.60;70.00;;;;;;4931678;29;20822;-72
2022/10/28 13:01:17;;;;;;;10.93;2.38;;;23.50;70.30;;;;;;4935131;29;20289;-72
2022/10/28 13:03:42;;;;;;;15.30;2.78;;;23.50;70.70;;;;;;4933322;28;20400;-73
2022/10/28 13:06:41;;;;;;;6.20;2.47;;;23.50;70.50;;;;;;4931892;29;20060;-72
2022/10/28 13:09:09;;;;;;;7.20;2.42;;;23.40;71.40;;;;;;4931065;29;20031;-72
2022/10/28 13:11:58;;;;;;;4.78;2.30;;;23.30;71.30;;;;;;4932016;28;20892;-72